Time;durP1;ratioP1;P1;durP2;ratioP2;P2;SDS_P1;SDS_P2;PMS_P1;PMS_P2;Temp;Humidity;BMP_temperature;BMP_pressure;BME280_temperature;BME280_humidity;BME280_pressure;Samples;Min_cycle;Max_cycle;Signal;HPM_P1;HPM_P2
2022/08/01 00:00:00;;;;;;;2.40;2.20;;;21.40;99.90;;;;;;7374377;19;20375;-77
2022/08/01 00:02:27;;;;;;;2.13;2.03;;;21.40;99.90;;;;;;7376069;19;20360;-77
2022/08/01 00:04:54;;;;;;;2.03;1.92;;;21.40;99.90;;;;;;7377224;19;20705;-78
2022/08/01 00:07:19;;;;;;;2.00;1.90;;;21.30;99.90;;;;;;7379586;19;20328;-77
2022/08/01 00:09:45;;;;;;;2.50;2.30;;;21.20;99.90;;;;;;7382064;19;20355;-76
2022/08/01 00:12:10;;;;;;;2.40;2.20;;;21.20;99.90;;;;;;7376086;19;20773;-77
2022/08/01 00:14:36;;;;;;;2.45;2.20;;;21.10;99.90;;;;;;7378740;19;20379;-77
2022/08/01 00:17:02;;;;;;;2.20;2.00;;;21.10;99.90;;;;;;7380093;19;20396;-77
2022/08/01 00:19:27;;;;;;;1.70;1.60;;;21.00;99.90;;;;;;7379608;19;20344;-76
2022/08/01 00:21:53;;;;;;;1.80;1.70;;;21.00;99.90;;;;;;7374344;19;20747;-77
2022/08/01 00:24:18;;;;;;;2.03;1.92;;;21.00;99.90;;;;;;7376126;19;20419;-77
2022/08/01 00:26:44;;;;;;;2.37;2.17;;;21.00;99.90;;;;;;7379746;19;20345;-76
2022/08/01 00:29:10;;;;;;;2.07;1.90;;;21.00;99.90;;;;;;7380573;19;20348;-77
2022/08/01 00:31:35;;;;;;;2.37;1.73;;;21.00;99.90;;;;;;7376871;19;20377;-77
2022/08/01 00:34:01;;;;;;;2.13;1.95;;;21.00;99.90;;;;;;7378700;19;21226;-77
2022/08/01 00:36:26;;;;;;;1.95;1.80;;;20.90;99.90;;;;;;7378100;19;20357;-77
2022/08/01 00:38:52;;;;;;;1.87;1.77;;;20.90;99.90;;;;;;7380957;19;20317;-76
2022/08/01 00:41:17;;;;;;;1.90;1.80;;;20.80;99.90;;;;;;7376297;19;20674;-78
2022/08/01 00:43:43;;;;;;;2.60;2.10;;;20.80;99.90;;;;;;7380371;19;20339;-77
2022/08/01 00:46:09;;;;;;;2.10;2.00;;;20.70;99.90;;;;;;7376992;19;20364;-78
2022/08/01 00:48:34;;;;;;;2.00;1.90;;;20.70;99.90;;;;;;7378945;19;20348;-77
2022/08/01 00:51:00;;;;;;;2.50;2.27;;;20.70;99.90;;;;;;7377941;19;20972;-77
2022/08/01 00:53:26;;;;;;;2.13;2.00;;;20.60;99.90;;;;;;7380584;19;20399;-76
2022/08/01 00:55:52;;;;;;;2.13;2.03;;;20.60;99.90;;;;;;7375069;19;20324;-76
2022/08/01 00:58:17;;;;;;;2.10;2.00;;;20.50;99.90;;;;;;7379836;19;20409;-77
2022/08/01 01:00:43;;;;;;;2.33;2.13;;;20.50;99.90;;;;;;7376850;19;20312;-76
2022/08/01 01:03:08;;;;;;;1.90;1.80;;;20.40;99.90;;;;;;7377216;19;20364;-77
2022/08/01 01:05:40;;;;;;;1.60;1.50;;;20.40;99.90;;;;;;7375968;19;21154;-76
2022/08/01 01:08:11;;;;;;;2.22;2.00;;;20.30;99.90;;;;;;7379577;19;20369;-78
2022/08/01 01:10:43;;;;;;;2.50;2.30;;;20.30;99.90;;;;;;7377925;19;20335;-78
2022/08/01 01:13:35;;;;;;;2.40;2.20;;;20.30;99.90;;;;;;7375730;19;20532;-77
2022/08/01 01:16:14;;;;;;;2.20;2.05;;;20.20;99.90;;;;;;7374354;19;20356;-77
2022/08/01 01:18:57;;;;;;;2.40;2.20;;;20.20;99.90;;;;;;7378668;19;20368;-77
2022/08/01 01:21:31;;;;;;;2.20;2.10;;;20.10;99.90;;;;;;7375099;19;20357;-77
2022/08/01 01:24:32;;;;;;;2.20;2.00;;;20.10;99.90;;;;;;7375867;19;20364;-77
2022/08/01 01:27:07;;;;;;;2.67;2.07;;;20.10;99.90;;;;;;7376360;19;20316;-77
2022/08/01 01:29:44;;;;;;;2.42;2.22;;;20.00;99.90;;;;;;7375830;19;20381;-77
2022/08/01 01:32:22;;;;;;;2.65;2.10;;;20.10;99.90;;;;;;7373607;19;20348;-78
2022/08/01 01:34:49;;;;;;;2.50;2.00;;;20.00;99.90;;;;;;7378047;19;20336;-77
2022/08/01 01:37:17;;;;;;;2.38;2.17;;;20.00;99.90;;;;;;7376078;19;20332;-77
2022/08/01 01:39:42;;;;;;;2.17;2.08;;;19.90;99.90;;;;;;7379600;19;20358;-77
2022/08/01 01:42:08;;;;;;;2.73;2.20;;;19.90;99.90;;;;;;7374263;19;20365;-77
2022/08/01 01:44:34;;;;;;;1.92;1.83;;;19.90;99.90;;;;;;7374867;19;20368;-77
2022/08/01 01:47:00;;;;;;;2.10;2.00;;;19.80;99.90;;;;;;7375455;19;20345;-77
2022/08/01 01:49:26;;;;;;;2.50;2.30;;;19.80;99.90;;;;;;7377423;19;20369;-77
2022/08/01 01:51:52;;;;;;;2.33;2.10;;;19.70;99.90;;;;;;7376897;19;20376;-77
2022/08/01 01:54:18;;;;;;;2.20;2.10;;;19.70;99.90;;;;;;7378549;19;20332;-78
2022/08/01 01:56:49;;;;;;;2.73;2.37;;;19.70;99.90;;;;;;7375479;19;20344;-77
2022/08/01 01:59:24;;;;;;;2.30;2.10;;;19.70;99.90;;;;;;7378813;19;21362;-77
2022/08/01 02:01:49;;;;;;;2.25;2.05;;;19.60;99.90;;;;;;7372785;19;20361;-76
2022/08/01 02:04:15;;;;;;;2.30;2.07;;;19.60;99.90;;;;;;7376171;19;20336;-76
2022/08/01 02:06:41;;;;;;;3.35;2.45;;;19.60;99.90;;;;;;7375563;19;20514;-76
2022/08/01 02:09:08;;;;;;;2.40;2.20;;;19.70;99.90;;;;;;7376788;19;20332;-76
2022/08/01 02:11:33;;;;;;;3.05;2.30;;;19.70;99.90;;;;;;7374092;19;21086;-77
2022/08/01 02:14:02;;;;;;;2.63;2.25;;;19.60;99.90;;;;;;7377317;19;20364;-78
2022/08/01 02:16:31;;;;;;;2.97;2.67;;;19.60;99.90;;;;;;7373645;19;20344;-76
2022/08/01 02:18:57;;;;;;;3.22;2.30;;;19.60;99.90;;;;;;7377308;19;20356;-78
2022/08/01 02:21:44;;;;;;;2.50;2.30;;;19.60;99.90;;;;;;7373089;19;20464;-77
2022/08/01 02:24:14;;;;;;;3.20;2.78;;;19.60;99.90;;;;;;7371322;19;20356;-77
2022/08/01 02:26:44;;;;;;;3.90;3.40;;;19.60;99.90;;;;;;7373668;19;20349;-78
2022/08/01 02:29:10;;;;;;;2.80;2.60;;;19.60;99.90;;;;;;7377274;19;20357;-77
2022/08/01 02:31:38;;;;;;;2.40;2.20;;;19.60;99.90;;;;;;7371887;19;20415;-78
2022/08/01 02:34:05;;;;;;;2.25;2.15;;;19.60;99.90;;;;;;7374342;19;20367;-78
2022/08/01 02:36:33;;;;;;;3.22;2.50;;;19.60;99.90;;;;;;7372241;19;20451;-76
2022/08/01 02:39:00;;;;;;;2.50;2.30;;;19.60;99.90;;;;;;7375934;19;21463;-76
2022/08/01 02:41:26;;;;;;;2.17;2.00;;;19.60;99.90;;;;;;7374702;19;20384;-76
2022/08/01 02:43:53;;;;;;;2.10;2.00;;;19.60;99.90;;;;;;7375557;19;20377;-77
2022/08/01 02:46:22;;;;;;;4.00;2.10;;;19.70;99.90;;;;;;7371987;19;20982;-77
2022/08/01 02:48:48;;;;;;;2.67;2.30;;;19.70;99.90;;;;;;7376139;19;20808;-76
2022/08/01 02:51:13;;;;;;;2.22;2.13;;;19.70;99.90;;;;;;7373262;19;20361;-77
2022/08/01 02:53:39;;;;;;;2.33;2.13;;;19.70;99.90;;;;;;7376377;19;20348;-77
2022/08/01 02:56:08;;;;;;;2.10;2.00;;;19.70;99.90;;;;;;7372082;19;20435;-78
2022/08/01 02:58:33;;;;;;;2.08;1.98;;;19.70;99.90;;;;;;7374025;19;20368;-77
2022/08/01 03:00:59;;;;;;;2.30;2.20;;;19.70;99.90;;;;;;7373435;19;20356;-77
2022/08/01 03:03:25;;;;;;;2.10;1.90;;;19.70;99.90;;;;;;7374861;19;20443;-76
2022/08/01 03:05:50;;;;;;;2.50;2.30;;;19.70;99.90;;;;;;7373380;19;20347;-77
2022/08/01 03:08:16;;;;;;;2.30;2.10;;;19.70;99.90;;;;;;7376696;19;20351;-77
2022/08/01 03:10:42;;;;;;;2.27;2.10;;;19.70;99.90;;;;;;7376034;19;20709;-78
2022/08/01 03:13:08;;;;;;;2.53;2.33;;;19.70;99.90;;;;;;7371159;19;20380;-77
2022/08/01 03:15:36;;;;;;;1.90;1.80;;;19.70;99.90;;;;;;7373888;19;20374;-77
2022/08/01 03:18:01;;;;;;;2.50;2.30;;;19.70;99.90;;;;;;7373548;19;20344;-78
2022/08/01 03:20:27;;;;;;;2.05;1.95;;;19.70;99.90;;;;;;7374225;19;20329;-77
2022/08/01 03:22:53;;;;;;;2.43;2.13;;;19.70;99.90;;;;;;7373129;19;20471;-77
2022/08/01 03:25:18;;;;;;;2.20;2.10;;;19.70;99.90;;;;;;7371286;19;20419;-77
2022/08/01 03:27:45;;;;;;;2.38;2.17;;;19.60;99.90;;;;;;7372811;19;20321;-76
2022/08/01 03:30:11;;;;;;;2.05;1.95;;;19.60;99.90;;;;;;7372419;19;20337;-77
2022/08/01 03:32:36;;;;;;;2.03;1.92;;;19.60;99.90;;;;;;7371603;19;20373;-77
2022/08/01 03:35:02;;;;;;;2.30;2.10;;;19.60;99.90;;;;;;7373665;19;21154;-77
2022/08/01 03:37:32;;;;;;;2.10;1.90;;;19.60;99.90;;;;;;7374656;19;20943;-76
2022/08/01 03:40:02;;;;;;;2.40;2.20;;;19.60;99.90;;;;;;7373359;19;20349;-77
2022/08/01 03:42:33;;;;;;;2.00;1.90;;;19.50;99.90;;;;;;7370327;19;21006;-77
2022/08/01 03:45:09;;;;;;;2.45;2.00;;;19.50;99.90;;;;;;7371016;19;20361;-77
2022/08/01 03:47:34;;;;;;;2.50;2.30;;;19.50;99.90;;;;;;7371439;19;20455;-77
2022/08/01 03:50:01;;;;;;;3.28;2.17;;;19.50;99.90;;;;;;7373508;19;20352;-77
2022/08/01 03:52:27;;;;;;;2.22;2.10;;;19.50;99.90;;;;;;7363064;19;20368;-76
2022/08/01 03:54:54;;;;;;;2.23;2.10;;;19.50;99.90;;;;;;7373483;19;20358;-77
2022/08/01 03:57:20;;;;;;;2.30;2.05;;;19.50;99.90;;;;;;7370207;19;20371;-77
2022/08/01 03:59:45;;;;;;;3.00;2.40;;;19.40;99.90;;;;;;7374310;19;20348;-76
2022/08/01 04:02:11;;;;;;;2.40;2.10;;;19.50;99.90;;;;;;7371375;19;20969;-77
2022/08/01 04:04:36;;;;;;;2.08;1.88;;;19.50;99.90;;;;;;7372082;19;20352;-76
2022/08/01 04:07:06;;;;;;;5.43;2.03;;;19.40;99.90;;;;;;7371741;19;20627;-77
2022/08/01 04:09:31;;;;;;;2.30;2.00;;;19.50;99.90;;;;;;7375559;19;20328;-77
2022/08/01 04:11:58;;;;;;;2.40;2.20;;;19.50;99.90;;;;;;7369221;19;20468;-76
2022/08/01 04:14:24;;;;;;;2.33;2.13;;;19.40;99.90;;;;;;7371182;19;20360;-77
2022/08/01 04:16:49;;;;;;;2.30;2.10;;;19.40;99.90;;;;;;7370923;19;20343;-77
2022/08/01 04:19:15;;;;;;;2.10;2.00;;;19.40;99.90;;;;;;7371689;19;20374;-77
2022/08/01 04:21:41;;;;;;;2.33;2.17;;;19.30;99.90;;;;;;7371109;19;20381;-77
2022/08/01 04:24:12;;;;;;;2.00;1.90;;;19.30;99.90;;;;;;7372239;19;20332;-77
2022/08/01 04:26:38;;;;;;;2.15;1.98;;;19.20;99.90;;;;;;7370607;19;20375;-77
2022/08/01 04:29:04;;;;;;;2.40;2.20;;;19.20;99.90;;;;;;7372658;19;20832;-78
2022/08/01 04:31:30;;;;;;;1.98;1.88;;;19.20;99.90;;;;;;7368609;19;20356;-77
2022/08/01 04:33:56;;;;;;;2.10;2.00;;;19.20;99.90;;;;;;7371947;19;20332;-77
2022/08/01 04:36:22;;;;;;;1.77;1.67;;;19.20;99.90;;;;;;7369130;19;21284;-77
2022/08/01 04:38:50;;;;;;;1.95;1.85;;;19.20;99.90;;;;;;7372589;19;20558;-77
2022/08/01 04:41:15;;;;;;;2.00;1.90;;;19.30;99.90;;;;;;7369756;19;20368;-77
2022/08/01 04:43:41;;;;;;;2.03;1.93;;;19.40;99.90;;;;;;7370899;19;20341;-77
2022/08/01 04:46:07;;;;;;;2.10;2.00;;;19.40;99.90;;;;;;7369878;19;20360;-77
2022/08/01 04:48:33;;;;;;;3.00;1.97;;;19.50;99.90;;;;;;7377233;19;20324;-77
2022/08/01 04:50:59;;;;;;;2.70;2.38;;;19.50;99.90;;;;;;7378907;19;20336;-77
2022/08/01 04:53:26;;;;;;;2.42;2.22;;;19.60;99.90;;;;;;7377407;19;20418;-77
2022/08/01 04:55:51;;;;;;;3.63;2.42;;;19.70;99.90;;;;;;7378500;19;20348;-77
2022/08/01 04:58:17;;;;;;;2.00;1.90;;;19.80;99.90;;;;;;7377733;19;20341;-77
2022/08/01 05:00:43;;;;;;;3.60;2.33;;;19.80;99.90;;;;;;7377711;19;21032;-77
2022/08/01 05:03:08;;;;;;;2.30;2.10;;;19.80;99.90;;;;;;7374957;19;20534;-77
2022/08/01 05:05:34;;;;;;;2.10;2.00;;;19.80;99.90;;;;;;7376943;19;20393;-77
2022/08/01 05:08:00;;;;;;;2.50;2.30;;;19.80;99.90;;;;;;7376788;19;20337;-77
2022/08/01 05:10:26;;;;;;;2.38;2.17;;;19.90;99.90;;;;;;7380524;19;20377;-77
2022/08/01 05:12:51;;;;;;;2.50;2.30;;;19.90;99.90;;;;;;7375509;19;20389;-77
2022/08/01 05:15:17;;;;;;;2.42;2.22;;;20.00;99.90;;;;;;7376313;19;20344;-76
2022/08/01 05:17:43;;;;;;;1.90;1.80;;;20.00;99.90;;;;;;7375124;19;20414;-77
2022/08/01 05:20:09;;;;;;;2.00;1.87;;;20.10;99.90;;;;;;7380484;19;20346;-76
2022/08/01 05:22:34;;;;;;;2.90;2.40;;;20.20;99.90;;;;;;7370009;19;20353;-77
2022/08/01 05:25:00;;;;;;;1.90;1.80;;;20.30;99.90;;;;;;7370068;19;20376;-76
2022/08/01 05:27:26;;;;;;;2.40;2.20;;;20.50;99.90;;;;;;7372220;19;21401;-76
2022/08/01 05:29:51;;;;;;;2.87;2.00;;;20.50;99.90;;;;;;7373346;19;20344;-77
2022/08/01 05:32:17;;;;;;;2.70;1.90;;;20.50;99.90;;;;;;7371020;19;20692;-77
2022/08/01 05:34:43;;;;;;;3.13;1.90;;;20.60;99.90;;;;;;7374517;19;20348;-77
2022/08/01 05:37:08;;;;;;;2.20;2.00;;;20.60;99.90;;;;;;7376901;19;20423;-76
2022/08/01 05:39:34;;;;;;;1.90;1.70;;;20.70;99.90;;;;;;7378847;19;20361;-77
2022/08/01 05:41:59;;;;;;;2.15;1.95;;;20.70;99.90;;;;;;7376098;19;20360;-76
2022/08/01 05:44:25;;;;;;;2.17;2.07;;;20.80;99.90;;;;;;7377317;19;20344;-76
2022/08/01 05:46:51;;;;;;;2.20;2.00;;;20.70;99.90;;;;;;7376127;19;20328;-76
2022/08/01 05:49:16;;;;;;;2.20;2.10;;;20.70;99.90;;;;;;7381187;19;20518;-76
2022/08/01 05:51:42;;;;;;;2.30;2.10;;;20.80;99.90;;;;;;7375921;19;20392;-76
2022/08/01 05:54:07;;;;;;;4.50;2.10;;;20.80;99.90;;;;;;7374380;19;20827;-76
2022/08/01 05:56:33;;;;;;;2.23;2.03;;;20.90;99.90;;;;;;7375211;19;20340;-76
2022/08/01 05:58:58;;;;;;;1.85;1.70;;;20.80;99.90;;;;;;7377525;19;20351;-76
2022/08/01 06:01:24;;;;;;;1.95;1.85;;;20.90;99.90;;;;;;7374376;19;20356;-76
2022/08/01 06:03:49;;;;;;;1.87;1.77;;;20.90;99.90;;;;;;7375695;19;20695;-77
2022/08/01 06:06:15;;;;;;;2.27;2.03;;;21.00;99.90;;;;;;7375593;19;20336;-76
2022/08/01 06:08:41;;;;;;;2.10;1.90;;;21.10;99.90;;;;;;7378088;19;20344;-77
2022/08/01 06:11:06;;;;;;;2.00;1.83;;;21.30;99.90;;;;;;7378221;19;20677;-77
2022/08/01 06:13:32;;;;;;;2.33;2.03;;;21.40;99.90;;;;;;7374680;19;20340;-77
2022/08/01 06:15:58;;;;;;;2.30;2.10;;;21.40;99.90;;;;;;7376070;19;20371;-76
2022/08/01 06:18:24;;;;;;;2.65;2.20;;;21.40;99.90;;;;;;7372151;19;20366;-77
2022/08/01 06:20:49;;;;;;;2.10;2.00;;;21.50;99.90;;;;;;7378034;19;20349;-76
2022/08/01 06:23:15;;;;;;;2.28;2.15;;;21.60;99.90;;;;;;7372070;19;20939;-75
2022/08/01 06:25:42;;;;;;;2.40;2.20;;;21.70;99.90;;;;;;7375428;19;20365;-77
2022/08/01 06:28:07;;;;;;;2.47;2.27;;;21.90;99.90;;;;;;7374732;19;20385;-76
2022/08/01 06:30:33;;;;;;;2.40;2.20;;;22.10;99.90;;;;;;7375866;19;20324;-77
2022/08/01 06:32:59;;;;;;;2.20;2.10;;;22.10;99.90;;;;;;7372489;19;20356;-76
2022/08/01 06:35:25;;;;;;;2.25;2.05;;;22.10;99.90;;;;;;7376382;19;20345;-76
2022/08/01 06:37:51;;;;;;;1.98;1.88;;;22.20;99.90;;;;;;7373506;19;20363;-76
2022/08/01 06:40:17;;;;;;;2.30;2.03;;;22.20;99.90;;;;;;7377326;19;21050;-76
2022/08/01 06:42:45;;;;;;;2.60;2.40;;;22.20;99.90;;;;;;7373478;19;20369;-76
2022/08/01 06:45:11;;;;;;;2.63;2.20;;;22.30;99.90;;;;;;7372340;19;20871;-76
2022/08/01 06:47:37;;;;;;;2.97;2.20;;;22.10;99.90;;;;;;7373791;19;20325;-76
2022/08/01 06:50:04;;;;;;;2.53;2.33;;;22.30;99.90;;;;;;7375749;19;20345;-76
2022/08/01 06:52:29;;;;;;;2.25;2.13;;;22.50;99.90;;;;;;7371374;19;20526;-76
2022/08/01 06:54:55;;;;;;;2.47;2.20;;;22.60;99.90;;;;;;7375087;19;20408;-76
2022/08/01 06:57:20;;;;;;;2.28;2.10;;;22.70;99.90;;;;;;7372180;19;20697;-76
2022/08/01 06:59:46;;;;;;;2.20;2.00;;;22.70;99.90;;;;;;7376342;19;20340;-76
2022/08/01 07:02:11;;;;;;;2.10;2.00;;;22.80;99.90;;;;;;7371623;19;20962;-76
2022/08/01 07:04:37;;;;;;;2.00;1.90;;;22.90;99.90;;;;;;7372855;19;20427;-76
2022/08/01 07:07:03;;;;;;;2.03;1.93;;;22.90;99.90;;;;;;7373837;19;20352;-76
2022/08/01 07:09:28;;;;;;;2.40;2.00;;;23.00;99.90;;;;;;7369252;19;20345;-76
2022/08/01 07:11:55;;;;;;;4.25;2.10;;;23.10;99.90;;;;;;7373745;19;20369;-76
2022/08/01 07:14:21;;;;;;;2.17;2.00;;;23.10;99.90;;;;;;7372209;19;20336;-76
2022/08/01 07:16:46;;;;;;;2.00;1.80;;;23.30;99.90;;;;;;7374141;19;20328;-76
2022/08/01 07:19:12;;;;;;;2.10;1.95;;;23.50;99.90;;;;;;7373477;19;20336;-77
2022/08/01 07:21:38;;;;;;;2.47;1.83;;;23.50;99.90;;;;;;7374856;19;20373;-76
2022/08/01 07:24:04;;;;;;;1.80;1.70;;;23.50;99.90;;;;;;7368159;19;20352;-77
2022/08/01 07:26:30;;;;;;;1.80;1.70;;;23.50;99.90;;;;;;7373357;19;21097;-76
2022/08/01 07:28:55;;;;;;;1.90;1.80;;;23.40;99.90;;;;;;7374466;19;20336;-77
2022/08/01 07:31:21;;;;;;;1.60;1.50;;;23.60;99.90;;;;;;7373432;19;20340;-76
2022/08/01 07:33:46;;;;;;;2.40;1.87;;;23.80;99.90;;;;;;7375247;19;20408;-76
2022/08/01 07:36:12;;;;;;;1.77;1.67;;;24.00;99.90;;;;;;7369687;19;20348;-76
2022/08/01 07:38:37;;;;;;;1.67;1.55;;;24.10;99.90;;;;;;7375422;19;21227;-76
2022/08/01 07:41:03;;;;;;;1.60;1.50;;;24.20;99.90;;;;;;7373353;19;20320;-76
2022/08/01 07:43:29;;;;;;;1.90;1.80;;;24.30;99.90;;;;;;7373566;19;20332;-76
2022/08/01 07:45:54;;;;;;;1.87;1.77;;;24.40;99.90;;;;;;7371560;19;20887;-76
2022/08/01 07:48:23;;;;;;;1.90;1.80;;;24.30;99.90;;;;;;7373340;19;20500;-76
2022/08/01 07:50:52;;;;;;;1.52;1.42;;;24.40;99.90;;;;;;7374739;19;20379;-76
2022/08/01 07:53:17;;;;;;;1.70;1.60;;;24.70;99.90;;;;;;7374791;19;20432;-76
2022/08/01 07:55:43;;;;;;;2.10;1.80;;;24.50;99.90;;;;;;7367752;19;20736;-76
2022/08/01 07:58:08;;;;;;;3.20;1.95;;;24.60;99.90;;;;;;7373871;19;20372;-76
2022/08/01 08:00:34;;;;;;;1.75;1.65;;;24.60;99.90;;;;;;7368179;19;20316;-76
2022/08/01 08:02:59;;;;;;;1.77;1.40;;;24.60;99.90;;;;;;7367481;19;20797;-77
2022/08/01 08:05:28;;;;;;;1.70;1.60;;;24.80;99.90;;;;;;7369817;19;20340;-76
2022/08/01 08:07:54;;;;;;;1.80;1.70;;;24.90;99.90;;;;;;7368529;19;20354;-76
2022/08/01 08:10:19;;;;;;;6.05;1.80;;;25.00;99.90;;;;;;7374371;19;20966;-76
2022/08/01 08:12:46;;;;;;;1.70;1.60;;;25.00;99.90;;;;;;7369587;19;20466;-76
2022/08/01 08:15:12;;;;;;;1.80;1.70;;;25.00;99.90;;;;;;7370292;19;20357;-76
2022/08/01 08:17:38;;;;;;;1.75;1.65;;;25.10;99.90;;;;;;7372329;19;20435;-76
2022/08/01 08:20:05;;;;;;;1.63;1.53;;;25.10;99.90;;;;;;7371410;19;20337;-77
2022/08/01 08:22:31;;;;;;;1.80;1.70;;;25.00;99.90;;;;;;7370811;19;20380;-75
2022/08/01 08:24:56;;;;;;;1.65;1.55;;;25.00;99.90;;;;;;7376849;19;20367;-76
2022/08/01 08:27:22;;;;;;;6.15;2.10;;;25.50;99.90;;;;;;7378806;19;20365;-76
2022/08/01 08:29:48;;;;;;;1.95;1.60;;;25.50;99.90;;;;;;7381199;19;20352;-76
2022/08/01 08:32:13;;;;;;;1.57;1.47;;;25.80;99.90;;;;;;7375047;19;20390;-76
2022/08/01 08:34:39;;;;;;;1.60;1.50;;;25.90;99.90;;;;;;7380323;19;20333;-76
2022/08/01 08:37:04;;;;;;;1.70;1.60;;;25.90;99.90;;;;;;7377629;19;20348;-76
2022/08/01 08:39:31;;;;;;;1.80;1.70;;;25.90;99.90;;;;;;7380929;19;20364;-76
2022/08/01 08:41:59;;;;;;;2.80;1.60;;;26.10;99.90;;;;;;7377878;19;20367;-76
2022/08/01 08:44:24;;;;;;;1.50;1.40;;;25.80;99.90;;;;;;7378459;19;21134;-76
2022/08/01 08:46:51;;;;;;;1.77;1.67;;;26.00;99.90;;;;;;7375610;19;20358;-76
2022/08/01 08:49:24;;;;;;;1.70;1.60;;;25.90;99.90;;;;;;7376495;19;20974;-76
2022/08/01 08:51:50;;;;;;;1.83;1.60;;;26.00;99.90;;;;;;7379104;19;20375;-76
2022/08/01 08:54:18;;;;;;;1.60;1.50;;;25.60;99.90;;;;;;7376323;19;20977;-76
2022/08/01 08:56:43;;;;;;;1.50;1.40;;;26.00;99.90;;;;;;7379324;19;20466;-76
2022/08/01 08:59:11;;;;;;;1.75;1.60;;;26.10;99.90;;;;;;7376529;19;20447;-76
2022/08/01 09:01:36;;;;;;;3.93;2.10;;;26.00;99.90;;;;;;7377777;19;20356;-76
2022/08/01 09:04:03;;;;;;;1.60;1.50;;;25.60;99.90;;;;;;7376030;19;20364;-76
2022/08/01 09:06:29;;;;;;;1.85;1.67;;;25.40;99.90;;;;;;7378139;19;20428;-76
2022/08/01 09:08:55;;;;;;;2.13;1.80;;;25.50;99.90;;;;;;7376029;19;20373;-76
2022/08/01 09:11:21;;;;;;;2.10;1.90;;;25.40;99.90;;;;;;7376405;19;20377;-76
2022/08/01 09:14:10;;;;;;;2.88;2.00;;;25.30;99.90;;;;;;7376877;19;20361;-77
2022/08/01 09:16:36;;;;;;;2.22;1.90;;;25.70;99.90;;;;;;7378090;19;20416;-76
2022/08/01 09:19:10;;;;;;;1.90;1.80;;;26.00;99.90;;;;;;7376751;19;20965;-76
2022/08/01 09:21:35;;;;;;;1.85;1.58;;;26.20;99.90;;;;;;7377890;19;20372;-76
2022/08/01 09:24:07;;;;;;;1.63;1.52;;;26.30;99.90;;;;;;7374224;19;20356;-76
2022/08/01 09:26:34;;;;;;;1.52;1.42;;;26.40;99.90;;;;;;7377909;19;20816;-76
2022/08/01 09:29:04;;;;;;;1.50;1.40;;;26.70;99.90;;;;;;7375697;19;20374;-76
2022/08/01 09:31:38;;;;;;;1.60;1.50;;;26.60;99.90;;;;;;7378004;19;20908;-76
2022/08/01 09:34:03;;;;;;;1.65;1.55;;;26.30;99.90;;;;;;7374317;19;20372;-76
2022/08/01 09:36:53;;;;;;;1.70;1.60;;;26.40;99.90;;;;;;7376264;19;20336;-75
2022/08/01 09:39:19;;;;;;;1.97;1.50;;;26.60;99.90;;;;;;7375617;19;20359;-76
2022/08/01 09:41:45;;;;;;;1.50;1.40;;;26.70;99.90;;;;;;7376935;19;20409;-76
2022/08/01 09:44:10;;;;;;;1.08;1.08;;;26.90;99.90;;;;;;7371256;19;20365;-76
2022/08/01 09:46:36;;;;;;;1.40;1.40;;;27.20;99.90;;;;;;7376781;19;20389;-76
2022/08/01 09:49:05;;;;;;;1.33;1.30;;;27.30;99.90;;;;;;7375820;19;20365;-76
2022/08/01 09:51:38;;;;;;;1.60;1.42;;;27.40;99.90;;;;;;7375929;19;20955;-75
2022/08/01 09:54:05;;;;;;;1.40;1.30;;;27.60;99.90;;;;;;7376263;19;20419;-76
2022/08/01 09:56:38;;;;;;;1.10;1.10;;;28.00;99.90;;;;;;7375575;19;20710;-76
2022/08/01 09:59:04;;;;;;;1.40;1.30;;;28.70;99.90;;;;;;7376327;19;20416;-76
2022/08/01 10:01:45;;;;;;;1.38;1.30;;;28.80;99.90;;;;;;7375852;19;20412;-76
2022/08/01 10:04:15;;;;;;;1.43;1.33;;;29.00;99.90;;;;;;7374776;19;20363;-76
2022/08/01 10:06:43;;;;;;;2.00;1.20;;;29.20;99.90;;;;;;7377129;19;20328;-76
2022/08/01 10:09:09;;;;;;;1.23;1.20;;;29.00;99.90;;;;;;7372765;19;20985;-75
2022/08/01 10:11:38;;;;;;;1.60;1.50;;;28.50;99.90;;;;;;7376672;19;20368;-76
2022/08/01 10:14:04;;;;;;;1.50;1.40;;;27.80;99.90;;;;;;7373416;19;20411;-75
2022/08/01 10:16:29;;;;;;;1.60;1.50;;;27.50;99.90;;;;;;7374746;19;20759;-76
2022/08/01 10:18:55;;;;;;;1.48;1.38;;;27.40;99.90;;;;;;7375639;19;20344;-76
2022/08/01 10:21:21;;;;;;;1.60;1.50;;;27.40;99.90;;;;;;7375732;19;20499;-76
2022/08/01 10:23:46;;;;;;;1.60;1.50;;;26.80;99.90;;;;;;7374825;19;20794;-76
2022/08/01 10:26:12;;;;;;;1.60;1.50;;;27.00;99.90;;;;;;7375492;19;20890;-76
2022/08/01 10:28:38;;;;;;;1.50;1.40;;;27.30;99.90;;;;;;7374012;19;20349;-76
2022/08/01 10:31:04;;;;;;;1.50;1.40;;;27.50;99.90;;;;;;7375030;19;20703;-76
2022/08/01 10:33:30;;;;;;;1.50;1.40;;;27.70;99.90;;;;;;7374967;19;20368;-76
2022/08/01 10:35:55;;;;;;;1.20;1.20;;;27.50;99.90;;;;;;7374770;19;20477;-76
2022/08/01 10:38:23;;;;;;;1.40;1.30;;;27.60;99.90;;;;;;7377306;19;20373;-76
2022/08/01 10:40:48;;;;;;;1.40;1.30;;;28.00;99.90;;;;;;7373208;19;20335;-76
2022/08/01 10:43:14;;;;;;;1.50;1.20;;;27.70;99.90;;;;;;7374985;19;20376;-76
2022/08/01 10:45:40;;;;;;;0.93;0.93;;;27.20;99.90;;;;;;7366872;19;20728;-76
2022/08/01 10:48:18;;;;;;;1.55;1.05;;;26.10;99.90;;;;;;7374793;19;20344;-76
2022/08/01 10:50:45;;;;;;;1.38;1.27;;;26.20;99.90;;;;;;7373678;19;20361;-76
2022/08/01 10:53:21;;;;;;;1.10;1.10;;;25.90;99.90;;;;;;7374203;19;20376;-76
2022/08/01 10:55:59;;;;;;;1.00;1.00;;;25.20;99.90;;;;;;7373459;19;20465;-76
2022/08/01 10:58:31;;;;;;;0.95;0.95;;;25.00;99.90;;;;;;7375192;19;21022;-76
2022/08/01 11:01:18;;;;;;;0.90;0.90;;;24.70;99.90;;;;;;7373099;19;20672;-76
2022/08/01 11:03:55;;;;;;;0.90;0.90;;;24.30;99.90;;;;;;7374523;19;20454;-76
2022/08/01 11:06:26;;;;;;;0.90;0.90;;;24.20;99.90;;;;;;7373611;19;20360;-76
2022/08/01 11:08:53;;;;;;;0.90;0.90;;;24.40;99.90;;;;;;7373899;19;20344;-76
2022/08/01 11:11:19;;;;;;;0.70;0.70;;;24.20;99.90;;;;;;7374968;19;20382;-75
2022/08/01 11:14:00;;;;;;;2.50;0.90;;;24.30;99.90;;;;;;7373193;19;21270;-76
2022/08/01 11:16:27;;;;;;;0.90;0.90;;;24.00;99.90;;;;;;7375899;19;21020;-77
2022/08/01 11:18:53;;;;;;;2.10;0.90;;;23.70;99.90;;;;;;7372486;19;20369;-76
2022/08/01 11:21:19;;;;;;;2.70;0.80;;;23.30;99.90;;;;;;7373654;19;20355;-78
2022/08/01 11:23:48;;;;;;;1.02;0.98;;;23.20;99.90;;;;;;7375101;19;20377;-78
2022/08/01 11:26:14;;;;;;;0.70;0.70;;;22.80;99.90;;;;;;7374504;19;20762;-77
2022/08/01 11:28:39;;;;;;;1.00;0.90;;;22.50;99.90;;;;;;7374537;19;20381;-77
2022/08/01 11:31:08;;;;;;;0.80;0.80;;;22.50;99.90;;;;;;7373905;19;20344;-78
2022/08/01 11:33:40;;;;;;;0.85;0.80;;;22.60;99.90;;;;;;7375658;19;20320;-77
2022/08/01 11:36:11;;;;;;;1.05;0.85;;;22.50;99.90;;;;;;7373872;19;20349;-78
2022/08/01 11:39:00;;;;;;;0.80;0.80;;;22.50;99.90;;;;;;7375146;19;20340;-78
2022/08/01 11:41:28;;;;;;;0.90;0.90;;;22.20;99.90;;;;;;7373857;19;20356;-77
2022/08/01 11:44:22;;;;;;;0.90;0.90;;;22.40;99.90;;;;;;7374242;19;20382;-79
2022/08/01 11:46:50;;;;;;;0.90;0.90;;;22.60;99.90;;;;;;7374338;19;20918;-78
2022/08/01 11:49:45;;;;;;;1.10;0.90;;;22.60;99.90;;;;;;7373047;19;20698;-77
2022/08/01 11:52:15;;;;;;;1.00;1.00;;;22.80;99.90;;;;;;7373579;19;20368;-77
2022/08/01 11:54:50;;;;;;;0.90;0.90;;;22.80;99.90;;;;;;7372111;19;20428;-76
2022/08/01 11:57:20;;;;;;;1.00;1.00;;;23.00;99.90;;;;;;7378654;19;20933;-77
2022/08/01 11:59:50;;;;;;;1.10;1.10;;;23.00;99.90;;;;;;7382371;19;20361;-76
2022/08/01 12:02:29;;;;;;;1.00;1.00;;;23.00;99.90;;;;;;7379404;19;21061;-76
2022/08/01 12:05:05;;;;;;;1.00;1.00;;;23.10;99.90;;;;;;7377751;19;20332;-77
2022/08/01 12:07:31;;;;;;;1.40;1.27;;;23.10;99.90;;;;;;7384668;19;20375;-76
2022/08/01 12:10:04;;;;;;;1.10;1.10;;;23.10;99.90;;;;;;7379027;19;20340;-77
2022/08/01 12:12:30;;;;;;;1.40;1.30;;;23.10;99.90;;;;;;7381915;19;20360;-76
2022/08/01 12:14:57;;;;;;;1.60;1.50;;;23.00;99.90;;;;;;7380460;19;20387;-77
2022/08/01 12:17:37;;;;;;;1.60;1.50;;;23.10;99.90;;;;;;7381300;19;20697;-76
2022/08/01 12:20:04;;;;;;;1.80;1.70;;;23.20;99.90;;;;;;7381145;19;20376;-76
2022/08/01 12:22:30;;;;;;;2.00;1.73;;;23.60;99.90;;;;;;7380950;19;20360;-77
2022/08/01 12:24:56;;;;;;;2.28;2.08;;;23.60;99.90;;;;;;7378414;19;20876;-77
2022/08/01 12:27:27;;;;;;;2.40;2.20;;;23.10;99.90;;;;;;7383498;19;20373;-77
2022/08/01 12:29:52;;;;;;;2.00;1.90;;;23.30;99.90;;;;;;7378135;19;20355;-76
2022/08/01 12:32:30;;;;;;;2.72;2.53;;;23.40;99.90;;;;;;7379816;19;20309;-76
2022/08/01 12:34:57;;;;;;;2.65;2.45;;;23.30;99.90;;;;;;7373716;19;21329;-76
2022/08/01 12:37:22;;;;;;;2.83;2.63;;;23.00;99.90;;;;;;7381461;19;20423;-75
2022/08/01 12:39:48;;;;;;;2.72;2.53;;;22.90;99.90;;;;;;7379195;19;20700;-77
2022/08/01 12:42:14;;;;;;;2.80;2.60;;;22.90;99.90;;;;;;7378614;19;20360;-77
2022/08/01 12:44:40;;;;;;;2.63;2.43;;;22.90;99.90;;;;;;7376721;19;20347;-76
2022/08/01 12:47:05;;;;;;;3.05;2.75;;;23.20;99.90;;;;;;7379732;19;20942;-77
2022/08/01 12:49:42;;;;;;;3.42;2.58;;;23.20;99.90;;;;;;7379049;19;20380;-76